Time,TemperatureF,DewpointF,PressureIn,WindDirection,WindDirectionDegrees,WindSpeedMPH,WindSpeedGustMPH,Humidity,HourlyPrecipIn,Conditions,Clouds,dailyrainin,SoftwareType,DateUTC
2013-07-27 00:02:00,75.0,71.9,30.00,ENE,68,0.0,0.0,90,0.00,,SKC,0.00,VWS V14.01,2013-07-27 07:02:00,
2013-07-27 00:07:00,75.0,71.9,30.00,ENE,68,0.0,0.0,90,0.00,,SKC,0.00,VWS V14.01,2013-07-27 07:07:00,
2013-07-27 00:12:00,75.0,72.2,29.99,ENE,68,0.0,0.0,91,0.00,,SKC,0.00,VWS V14.01,2013-07-27 07:12:00,
2013-07-27 00:17:00,75.0,72.2,30.00,ENE,68,0.0,0.0,91,0.00,,SKC,0.00,VWS V14.01,2013-07-27 07:17:00,
2013-07-27 00:22:00,75.0,72.2,29.99,ENE,68,0.0,1.0,91,0.00,,SKC,0.00,VWS V14.01,2013-07-27 07:22:00,
2013-07-27 00:27:00,75.0,72.2,29.99,ENE,68,0.0,0.0,91,0.00,,SKC,0.00,VWS V14.01,2013-07-27 07:27:00,
2013-07-27 00:32:00,75.0,72.2,29.99,ENE,68,0.0,0.0,91,0.00,,SKC,0.00,VWS V14.01,2013-07-27 07:32:00,
2013-07-27 00:37:00,75.0,72.2,29.99,East,90,0.0,0.0,91,0.00,,SKC,0.00,VWS V14.01,2013-07-27 07:37:00,
2013-07-27 00:42:00,75.0,72.5,29.99,SE,135,0.0,0.0,92,0.00,,SKC,0.00,VWS V14.01,2013-07-27 07:42:00,
2013-07-27 00:47:00,74.0,71.5,29.99,SE,135,0.0,0.0,92,0.00,,SKC,0.00,VWS V14.01,2013-07-27 07:47:00,
2013-07-27 00:52:00,74.0,71.5,29.99,NNE,22,0.0,1.0,92,0.00,,SKC,0.00,VWS V14.01,2013-07-27 07:52:00,
2013-07-27 00:57:00,74.0,71.5,29.99,NNE,22,3.0,3.0,92,0.00,,SKC,0.00,VWS V14.01,2013-07-27 07:57:00,
2013-07-27 01:02:00,74.0,71.2,29.99,North,0,1.0,1.0,91,0.00,,SKC,0.00,VWS V14.01,2013-07-27 08:02:00,
2013-07-27 01:07:00,75.0,71.9,29.99,NNE,22,1.0,2.0,90,0.00,,SKC,0.00,VWS V14.01,2013-07-27 08:07:00,
2013-07-27 01:12:00,75.0,71.5,29.98,North,0,3.0,3.0,89,0.00,,SKC,0.00,VWS V14.01,2013-07-27 08:12:00,
2013-07-27 01:17:00,75.0,71.2,29.98,North,0,3.0,3.0,88,0.00,,SKC,0.00,VWS V14.01,2013-07-27 08:17:00,
2013-07-27 01:22:00,75.0,70.5,29.98,NNW,338,4.0,4.0,86,0.00,,SKC,0.00,VWS V14.01,2013-07-27 08:22:00,
2013-07-27 01:27:00,75.0,70.2,29.98,North,0,0.0,0.0,85,0.00,,SKC,0.00,VWS V14.01,2013-07-27 08:27:00,
2013-07-27 01:32:00,75.0,70.2,29.97,NNE,22,2.0,2.0,85,0.00,,SKC,0.00,VWS V14.01,2013-07-27 08:32:00,
2013-07-27 01:37:00,75.0,70.5,29.98,NNE,22,0.0,0.0,86,0.00,,SKC,0.00,VWS V14.01,2013-07-27 08:37:00,
2013-07-27 01:42:00,75.0,70.5,29.98,NNE,22,0.0,0.0,86,0.00,,SKC,0.00,VWS V14.01,2013-07-27 08:42:00,
2013-07-27 01:47:00,75.0,70.5,29.98,North,0,2.0,3.0,86,0.00,,SKC,0.00,VWS V14.01,2013-07-27 08:47:00,
2013-07-27 01:52:00,75.0,70.5,29.98,NNE,22,3.0,3.0,86,0.00,,SKC,0.00,VWS V14.01,2013-07-27 08:52:00,
2013-07-27 01:57:00,75.0,70.5,29.98,North,0,3.0,3.0,86,0.00,,SKC,0.00,VWS V14.01,2013-07-27 08:57:00,
2013-07-27 02:02:00,75.0,70.9,29.98,NNE,22,2.0,3.0,87,0.00,,SKC,0.00,VWS V14.01,2013-07-27 09:02:00,
2013-07-27 02:07:00,75.0,70.9,29.98,North,0,3.0,3.0,87,0.00,,SKC,0.00,VWS V14.01,2013-07-27 09:07:00,
2013-07-27 02:12:00,75.0,70.9,29.98,NNE,22,0.0,0.0,87,0.00,,SKC,0.00,VWS V14.01,2013-07-27 09:12:00,
2013-07-27 02:17:00,75.0,71.2,29.98,NNE,22,0.0,0.0,88,0.00,,SKC,0.00,VWS V14.01,2013-07-27 09:17:00,
2013-07-27 02:22:00,75.0,71.2,29.98,NNE,22,0.0,0.0,88,0.00,,SKC,0.00,VWS V14.01,2013-07-27 09:22:00,
2013-07-27 02:27:00,74.0,70.2,29.98,NNE,22,0.0,0.0,88,0.00,,SKC,0.00,VWS V14.01,2013-07-27 09:27:00,
2013-07-27 02:32:00,74.0,70.2,29.98,NW,315,0.0,0.0,88,0.00,,SKC,0.00,VWS V14.01,2013-07-27 09:32:00,
2013-07-27 02:38:00,74.0,69.6,29.98,North,0,0.0,0.0,86,0.00,,SKC,0.00,VWS V14.01,2013-07-27 09:38:00,
2013-07-27 02:43:00,75.0,70.9,29.98,ENE,68,3.0,3.0,87,0.00,,SKC,0.00,VWS V14.01,2013-07-27 09:43:00,
2013-07-27 02:48:00,74.0,70.2,29.98,NE,45,0.0,0.0,88,0.00,,SKC,0.00,VWS V14.01,2013-07-27 09:48:00,
2013-07-27 02:53:00,74.0,70.6,29.98,NE,45,0.0,0.0,89,0.00,,SKC,0.00,VWS V14.01,2013-07-27 09:53:00,
2013-07-27 02:58:00,74.0,70.6,29.98,NE,45,1.0,1.0,89,0.00,,SKC,0.00,VWS V14.01,2013-07-27 09:58:00,
2013-07-27 03:03:00,74.0,70.6,29.98,North,0,0.0,1.0,89,0.00,,SKC,0.00,VWS V14.01,2013-07-27 10:03:00,
2013-07-27 03:08:00,74.0,70.6,29.98,North,0,0.0,0.0,89,0.00,,SKC,0.00,VWS V14.01,2013-07-27 10:08:00,
2013-07-27 03:13:00,74.0,70.6,29.98,North,0,0.0,0.0,89,0.00,,SKC,0.00,VWS V14.01,2013-07-27 10:13:00,
2013-07-27 03:18:00,74.0,70.2,29.98,North,0,0.0,0.0,88,0.00,,SKC,0.00,VWS V14.01,2013-07-27 10:18:00,
2013-07-27 03:23:00,74.0,70.6,29.99,SE,135,0.0,0.0,89,0.00,,SKC,0.00,VWS V14.01,2013-07-27 10:23:00,
2013-07-27 03:28:00,74.0,70.6,29.98,NNE,22,0.0,0.0,89,0.00,,SKC,0.00,VWS V14.01,2013-07-27 10:28:00,
2013-07-27 03:33:00,74.0,70.6,29.98,NE,45,0.0,0.0,89,0.00,,SKC,0.00,VWS V14.01,2013-07-27 10:33:00,
2013-07-27 03:38:00,74.0,70.6,29.98,NE,45,0.0,0.0,89,0.00,,SKC,0.00,VWS V14.01,2013-07-27 10:38:00,
2013-07-27 03:43:00,74.0,70.6,29.98,NNE,22,0.0,0.0,89,0.00,,SKC,0.00,VWS V14.01,2013-07-27 10:43:00,
2013-07-27 03:48:00,74.0,70.2,29.99,NNE,22,1.0,1.0,88,0.00,,SKC,0.00,VWS V14.01,2013-07-27 10:48:00,
2013-07-27 03:53:00,74.0,69.9,29.99,NE,45,0.0,0.0,87,0.00,,SKC,0.00,VWS V14.01,2013-07-27 10:53:00,
2013-07-27 03:58:00,74.0,69.6,29.99,NE,45,2.0,3.0,86,0.00,,SKC,0.00,VWS V14.01,2013-07-27 10:58:00,
2013-07-27 04:03:00,74.0,69.9,29.99,ENE,68,2.0,2.0,87,0.00,,SKC,0.00,VWS V14.01,2013-07-27 11:03:00,
2013-07-27 04:08:00,74.0,69.9,29.99,NNE,22,1.0,1.0,87,0.00,,SKC,0.00,VWS V14.01,2013-07-27 11:08:00,
2013-07-27 04:13:00,74.0,69.9,29.99,NNE,22,3.0,3.0,87,0.00,,SKC,0.00,VWS V14.01,2013-07-27 11:13:00,
2013-07-27 04:18:00,74.0,69.2,29.99,NE,45,3.0,4.0,85,0.00,,SKC,0.00,VWS V14.01,2013-07-27 11:18:00,
2013-07-27 04:23:00,74.0,68.5,29.98,ENE,68,1.0,1.0,83,0.00,,SKC,0.00,VWS V14.01,2013-07-27 11:23:00,
2013-07-27 04:28:00,74.0,68.5,29.98,NE,45,1.0,1.0,83,0.00,,SKC,0.00,VWS V14.01,2013-07-27 11:28:00,
2013-07-27 04:33:00,74.0,68.5,29.99,NE,45,2.0,3.0,83,0.00,,SKC,0.00,VWS V14.01,2013-07-27 11:33:00,
2013-07-27 04:38:00,74.0,68.9,29.99,North,0,4.0,4.0,84,0.00,,SKC,0.00,VWS V14.01,2013-07-27 11:38:00,
2013-07-27 04:43:00,74.0,69.2,29.99,NNE,22,3.0,4.0,85,0.00,,SKC,0.00,VWS V14.01,2013-07-27 11:43:00,
2013-07-27 04:48:00,74.0,69.2,29.99,NNW,338,1.0,3.0,85,0.00,,SKC,0.00,VWS V14.01,2013-07-27 11:48:00,
2013-07-27 04:53:00,74.0,69.2,29.99,SSE,158,3.0,3.0,85,0.00,,SKC,0.00,VWS V14.01,2013-07-27 11:53:00,
2013-07-27 04:58:00,74.0,68.9,29.99,SE,135,1.0,1.0,84,0.00,,SKC,0.00,VWS V14.01,2013-07-27 11:58:00,
2013-07-27 05:03:00,74.0,69.2,29.99,East,90,0.0,0.0,85,0.00,,SKC,0.00,VWS V14.01,2013-07-27 12:03:00,
2013-07-27 05:08:00,73.0,68.2,29.99,SSE,158,0.0,0.0,85,0.00,,SKC,0.00,VWS V14.01,2013-07-27 12:08:00,
2013-07-27 05:13:00,73.0,68.2,29.99,SSE,158,0.0,0.0,85,0.00,,SKC,0.00,VWS V14.01,2013-07-27 12:13:00,
2013-07-27 05:18:00,73.0,68.2,29.99,SSE,158,0.0,0.0,85,0.00,,SKC,0.00,VWS V14.01,2013-07-27 12:18:00,
2013-07-27 05:23:00,73.0,68.6,29.99,ENE,68,0.0,0.0,86,0.00,,SKC,0.00,VWS V14.01,2013-07-27 12:23:00,
2013-07-27 05:28:00,73.0,68.9,29.99,NE,45,0.0,0.0,87,0.00,,SKC,0.00,VWS V14.01,2013-07-27 12:28:00,
2013-07-27 05:33:00,73.0,68.9,29.99,NE,45,0.0,0.0,87,0.00,,SKC,0.00,VWS V14.01,2013-07-27 12:33:00,
2013-07-27 05:38:00,73.0,69.2,29.99,NE,45,3.0,3.0,88,0.00,,SKC,0.00,VWS V14.01,2013-07-27 12:38:00,
2013-07-27 05:43:00,73.0,69.2,29.99,NE,45,2.0,3.0,88,0.00,,SKC,0.00,VWS V14.01,2013-07-27 12:43:00,
2013-07-27 05:48:00,73.0,68.9,29.99,North,0,0.0,0.0,87,0.00,,SKC,0.00,VWS V14.01,2013-07-27 12:48:00,
2013-07-27 05:53:00,73.0,68.9,29.99,North,0,0.0,0.0,87,0.00,,SKC,0.00,VWS V14.01,2013-07-27 12:53:00,
2013-07-27 05:58:00,73.0,68.9,29.99,North,0,0.0,0.0,87,0.00,,SKC,0.00,VWS V14.01,2013-07-27 12:58:00,
2013-07-27 06:03:00,73.0,68.9,29.99,North,0,0.0,0.0,87,0.00,,SKC,0.00,VWS V14.01,2013-07-27 13:03:00,
2013-07-27 06:08:00,73.0,69.2,29.99,North,0,0.0,0.0,88,0.00,,SKC,0.00,VWS V14.01,2013-07-27 13:08:00,
2013-07-27 06:13:00,73.0,68.6,29.99,North,0,1.0,1.0,86,0.00,,SKC,0.00,VWS V14.01,2013-07-27 13:13:00,
2013-07-27 06:18:00,73.0,68.6,30.00,NNW,338,1.0,1.0,86,0.00,,SKC,0.00,VWS V14.01,2013-07-27 13:18:00,
2013-07-27 06:23:00,74.0,68.9,29.99,North,0,1.0,1.0,84,0.00,,SKC,0.00,VWS V14.01,2013-07-27 13:23:00,
2013-07-27 06:28:00,74.0,68.2,30.00,NNW,338,1.0,2.0,82,0.00,,SKC,0.00,VWS V14.01,2013-07-27 13:28:00,
2013-07-27 06:33:00,75.0,68.4,30.00,North,0,1.0,2.0,80,0.00,,SKC,0.00,VWS V14.01,2013-07-27 13:33:00,
2013-07-27 06:39:00,76.0,68.7,30.00,NE,45,4.0,4.0,78,0.00,,SKC,0.00,VWS V14.01,2013-07-27 13:39:00,
2013-07-27 06:44:00,76.0,68.7,30.00,NNE,22,0.0,0.0,78,0.00,,SKC,0.00,VWS V14.01,2013-07-27 13:44:00,
2013-07-27 06:49:00,76.0,68.3,30.00,NNE,22,0.0,1.0,77,0.00,,SKC,0.00,VWS V14.01,2013-07-27 13:49:00,
2013-07-27 06:54:00,77.0,70.0,30.00,SSE,158,3.0,3.0,79,0.00,,SKC,0.00,VWS V14.01,2013-07-27 13:54:00,
2013-07-27 06:59:00,77.0,70.4,30.00,SE,135,2.0,3.0,80,0.00,,SKC,0.00,VWS V14.01,2013-07-27 13:59:00,
2013-07-27 07:04:00,76.0,69.8,30.00,SE,135,0.0,0.0,81,0.00,,SKC,0.00,VWS V14.01,2013-07-27 14:04:00,
2013-07-27 07:09:00,76.0,70.1,30.00,SE,135,0.0,0.0,82,0.00,,SKC,0.00,VWS V14.01,2013-07-27 14:09:00,
2013-07-27 07:14:00,76.0,70.1,30.00,SE,135,0.0,0.0,82,0.00,,SKC,0.00,VWS V14.01,2013-07-27 14:14:00,
2013-07-27 07:19:00,76.0,70.1,30.00,SE,135,0.0,0.0,82,0.00,,SKC,0.00,VWS V14.01,2013-07-27 14:19:00,
2013-07-27 07:24:00,77.0,70.7,30.00,SE,135,0.0,0.0,81,0.00,,SKC,0.00,VWS V14.01,2013-07-27 14:24:00,
2013-07-27 07:29:00,77.0,70.4,30.00,ENE,68,0.0,0.0,80,0.00,,SKC,0.00,VWS V14.01,2013-07-27 14:29:00,
2013-07-27 07:34:00,78.0,70.6,30.00,ENE,68,1.0,1.0,78,0.00,,SKC,0.00,VWS V14.01,2013-07-27 14:34:00,
2013-07-27 07:39:00,79.0,70.4,30.00,ENE,68,0.0,1.0,75,0.00,,SKC,0.00,VWS V14.01,2013-07-27 14:39:00,
2013-07-27 07:44:00,79.0,70.0,30.00,East,90,1.0,1.0,74,0.00,,SKC,0.00,VWS V14.01,2013-07-27 14:44:00,
2013-07-27 07:49:00,80.0,70.2,30.00,ENE,68,3.0,3.0,72,0.00,,SKC,0.00,VWS V14.01,2013-07-27 14:49:00,
2013-07-27 07:54:00,80.0,68.9,30.00,ENE,68,1.0,1.0,69,0.00,,SKC,0.00,VWS V14.01,2013-07-27 14:54:00,
2013-07-27 07:59:00,81.0,69.9,30.00,SE,135,3.0,3.0,69,0.00,,SKC,0.00,VWS V14.01,2013-07-27 14:59:00,
2013-07-27 08:04:00,81.0,69.4,30.00,ENE,68,1.0,1.0,68,0.00,,SKC,0.00,VWS V14.01,2013-07-27 15:04:00,
2013-07-27 08:09:00,81.0,68.6,30.00,ENE,68,0.0,0.0,66,0.00,,SKC,0.00,VWS V14.01,2013-07-27 15:09:00,
2013-07-27 08:15:00,82.0,69.5,30.00,East,90,0.0,1.0,66,0.00,,SKC,0.00,VWS V14.01,2013-07-27 15:15:00,
2013-07-27 08:20:00,82.0,69.1,30.00,East,90,3.0,3.0,65,0.00,,SKC,0.00,VWS V14.01,2013-07-27 15:20:00,
2013-07-27 08:25:00,83.0,69.6,30.00,SE,135,0.0,0.0,64,0.00,,SKC,0.00,VWS V14.01,2013-07-27 15:25:00,
2013-07-27 08:30:00,83.0,68.7,30.00,SE,135,1.0,1.0,62,0.00,,SKC,0.00,VWS V14.01,2013-07-27 15:30:00,
2013-07-27 08:35:00,83.0,67.7,29.99,ENE,68,2.0,3.0,60,0.00,,SKC,0.00,VWS V14.01,2013-07-27 15:35:00,
2013-07-27 08:40:00,84.0,69.1,29.99,East,90,1.0,1.0,61,0.00,,SKC,0.00,VWS V14.01,2013-07-27 15:40:00,
2013-07-27 08:45:00,84.0,68.6,29.99,SE,135,3.0,4.0,60,0.00,,SKC,0.00,VWS V14.01,2013-07-27 15:45:00,
2013-07-27 08:50:00,84.0,67.7,29.99,ENE,68,2.0,2.0,58,0.00,,SKC,0.00,VWS V14.01,2013-07-27 15:50:00,
2013-07-27 08:55:00,84.0,67.1,29.99,SSE,158,3.0,3.0,57,0.00,,SKC,0.00,VWS V14.01,2013-07-27 15:55:00,
2013-07-27 09:00:00,84.0,67.1,29.99,SSE,158,3.0,3.0,57,0.00,,SKC,0.00,VWS V14.01,2013-07-27 16:00:00,
2013-07-27 09:05:00,85.0,68.1,29.99,South,180,1.0,2.0,57,0.00,,SKC,0.00,VWS V14.01,2013-07-27 16:05:00,
2013-07-27 09:10:00,85.0,67.6,29.99,South,180,0.0,0.0,56,0.00,,SKC,0.00,VWS V14.01,2013-07-27 16:10:00,
2013-07-27 09:15:00,85.0,67.0,29.99,SE,135,2.0,3.0,55,0.00,,SKC,0.00,VWS V14.01,2013-07-27 16:15:00,
2013-07-27 09:20:00,85.0,67.0,29.99,SSW,202,1.0,2.0,55,0.00,,SKC,0.00,VWS V14.01,2013-07-27 16:20:00,
2013-07-27 09:25:00,85.0,66.5,29.99,SW,225,1.0,2.0,54,0.00,,SKC,0.00,VWS V14.01,2013-07-27 16:25:00,
2013-07-27 09:30:00,85.0,67.0,29.99,NW,315,0.0,0.0,55,0.00,,SKC,0.00,VWS V14.01,2013-07-27 16:30:00,
2013-07-27 09:36:00,86.0,68.0,29.99,SSW,202,0.0,1.0,55,0.00,,SKC,0.00,VWS V14.01,2013-07-27 16:36:00,
2013-07-27 09:42:00,86.0,66.3,29.99,ESE,112,3.0,4.0,52,0.00,,SKC,0.00,VWS V14.01,2013-07-27 16:42:00,
2013-07-27 09:47:00,87.0,67.3,29.99,ESE,112,2.0,2.0,52,0.00,,SKC,0.00,VWS V14.01,2013-07-27 16:47:00,
2013-07-27 09:53:00,87.0,67.3,29.99,West,270,1.0,1.0,52,0.00,,SKC,0.00,VWS V14.01,2013-07-27 16:53:00,
2013-07-27 09:58:00,87.0,66.1,29.99,WSW,248,2.0,3.0,50,0.00,,SKC,0.00,VWS V14.01,2013-07-27 16:58:00,
2013-07-27 10:03:00,88.0,67.6,29.99,WSW,248,3.0,3.0,51,0.00,,SKC,0.00,VWS V14.01,2013-07-27 17:03:00,
2013-07-27 10:08:00,88.0,67.1,29.98,SSW,202,3.0,3.0,50,0.00,,SKC,0.00,VWS V14.01,2013-07-27 17:08:00,
2013-07-27 10:13:00,88.0,67.1,29.98,South,180,1.0,2.0,50,0.00,,SKC,0.00,VWS V14.01,2013-07-27 17:13:00,
2013-07-27 10:18:00,89.0,66.2,29.98,SE,135,1.0,1.0,47,0.00,,SKC,0.00,VWS V14.01,2013-07-27 17:18:00,
2013-07-27 10:23:00,90.0,67.1,29.98,SE,135,3.0,3.0,47,0.00,,SKC,0.00,VWS V14.01,2013-07-27 17:23:00,
2013-07-27 10:28:00,91.0,66.1,29.98,ESE,112,2.0,3.0,44,0.00,,SKC,0.00,VWS V14.01,2013-07-27 17:28:00,
2013-07-27 10:33:00,92.0,67.0,29.98,South,180,1.0,1.0,44,0.00,,SKC,0.00,VWS V14.01,2013-07-27 17:33:00,
2013-07-27 10:38:00,91.0,66.1,29.97,SW,225,4.0,5.0,44,0.00,,SKC,0.00,VWS V14.01,2013-07-27 17:38:00,
2013-07-27 10:43:00,90.0,64.5,29.97,WSW,248,3.0,4.0,43,0.00,,SKC,0.00,VWS V14.01,2013-07-27 17:43:00,
2013-07-27 10:48:00,91.0,65.4,29.97,WSW,248,3.0,4.0,43,0.00,,SKC,0.00,VWS V14.01,2013-07-27 17:48:00,
2013-07-27 10:53:00,91.0,66.1,29.97,SSW,202,3.0,4.0,44,0.00,,SKC,0.00,VWS V14.01,2013-07-27 17:53:00,
2013-07-27 10:58:00,91.0,65.4,29.97,WSW,248,1.0,1.0,43,0.00,,SKC,0.00,VWS V14.01,2013-07-27 17:58:00,
2013-07-27 11:03:00,92.0,66.3,29.97,NW,315,3.0,3.0,43,0.00,,SKC,0.00,VWS V14.01,2013-07-27 18:03:00,
2013-07-27 11:08:00,92.0,66.3,29.97,SW,225,5.0,5.0,43,0.00,,SKC,0.00,VWS V14.01,2013-07-27 18:08:00,
2013-07-27 11:13:00,92.0,66.3,29.97,West,270,0.0,0.0,43,0.00,,SKC,0.00,VWS V14.01,2013-07-27 18:13:00,
2013-07-27 11:18:00,93.0,67.2,29.97,WNW,292,5.0,5.0,43,0.00,,SKC,0.00,VWS V14.01,2013-07-27 18:18:00,
2013-07-27 11:23:00,93.0,66.5,29.96,WNW,292,2.0,3.0,42,0.00,,SKC,0.00,VWS V14.01,2013-07-27 18:23:00,
2013-07-27 11:28:00,93.0,66.5,29.96,West,270,2.0,2.0,42,0.00,,SKC,0.00,VWS V14.01,2013-07-27 18:28:00,
2013-07-27 11:33:00,93.0,66.5,29.96,WSW,248,6.0,6.0,42,0.00,,SKC,0.00,VWS V14.01,2013-07-27 18:33:00,
2013-07-27 11:38:00,92.0,66.3,29.95,West,270,8.0,8.0,43,0.00,,SKC,0.00,VWS V14.01,2013-07-27 18:38:00,
2013-07-27 11:43:00,92.0,65.6,29.96,WNW,292,1.0,1.0,42,0.00,,SKC,0.00,VWS V14.01,2013-07-27 18:43:00,
2013-07-27 11:48:00,92.0,65.6,29.96,NNW,338,6.0,9.0,42,0.00,,SKC,0.00,VWS V14.01,2013-07-27 18:48:00,
2013-07-27 11:53:00,93.0,67.2,29.96,West,270,3.0,3.0,43,0.00,,SKC,0.00,VWS V14.01,2013-07-27 18:53:00,
2013-07-27 11:58:00,94.0,66.7,29.96,NNE,22,4.0,5.0,41,0.00,,SKC,0.00,VWS V14.01,2013-07-27 18:58:00,
2013-07-27 12:03:00,91.0,66.1,29.96,NNE,22,7.0,9.0,44,0.00,,SKC,0.00,VWS V14.01,2013-07-27 19:03:00,
2013-07-27 12:08:00,89.0,64.3,29.96,North,0,10.0,11.0,44,0.00,,SKC,0.00,VWS V14.01,2013-07-27 19:08:00,
2013-07-27 12:13:00,89.0,64.3,29.96,NE,45,5.0,6.0,44,0.00,,SKC,0.00,VWS V14.01,2013-07-27 19:13:00,
2013-07-27 12:18:00,88.0,61.4,29.96,NE,45,5.0,8.0,41,0.00,,SKC,0.00,VWS V14.01,2013-07-27 19:18:00,
2013-07-27 12:23:00,88.0,62.0,29.95,NNE,22,6.0,8.0,42,0.00,,SKC,0.00,VWS V14.01,2013-07-27 19:23:00,
2013-07-27 12:28:00,89.0,64.9,29.95,ENE,68,11.0,11.0,45,0.00,,SKC,0.00,VWS V14.01,2013-07-27 19:28:00,
2013-07-27 12:33:00,90.0,67.7,29.95,NE,45,3.0,5.0,48,0.00,,SKC,0.00,VWS V14.01,2013-07-27 19:33:00,
2013-07-27 12:38:00,91.0,66.7,29.95,NE,45,5.0,6.0,45,0.00,,SKC,0.00,VWS V14.01,2013-07-27 19:38:00,
2013-07-27 12:43:00,92.0,66.3,29.95,NNE,22,8.0,8.0,43,0.00,,SKC,0.00,VWS V14.01,2013-07-27 19:43:00,
2013-07-27 12:49:00,91.0,64.1,29.94,WNW,292,6.0,8.0,41,0.00,,SKC,0.00,VWS V14.01,2013-07-27 19:49:00,
2013-07-27 12:55:00,92.0,65.6,29.94,NNE,22,6.0,7.0,42,0.00,,SKC,0.00,VWS V14.01,2013-07-27 19:55:00,
2013-07-27 13:00:00,92.0,64.9,29.94,NNE,22,7.0,11.0,41,0.00,,SKC,0.00,VWS V14.01,2013-07-27 20:00:00,
2013-07-27 13:05:00,91.0,64.1,29.94,NE,45,3.0,5.0,41,0.00,,SKC,0.00,VWS V14.01,2013-07-27 20:05:00,
2013-07-27 13:10:00,92.0,63.5,29.94,North,0,8.0,11.0,39,0.00,,SKC,0.00,VWS V14.01,2013-07-27 20:10:00,
2013-07-27 13:15:00,93.0,63.7,29.94,NNE,22,4.0,4.0,38,0.00,,SKC,0.00,VWS V14.01,2013-07-27 20:15:00,
2013-07-27 13:22:00,94.0,63.0,29.95,NE,45,5.0,5.0,36,0.00,,SKC,0.00,VWS V14.01,2013-07-27 20:22:00,
2013-07-27 13:27:00,93.0,61.3,29.95,NE,45,4.0,4.0,35,0.00,,SKC,0.00,VWS V14.01,2013-07-27 20:27:00,
2013-07-27 13:33:00,92.0,62.8,29.94,ENE,68,5.0,6.0,38,0.00,,SKC,0.00,VWS V14.01,2013-07-27 20:33:00,
2013-07-27 13:39:00,92.0,62.0,29.94,East,90,3.0,5.0,37,0.00,,SKC,0.00,VWS V14.01,2013-07-27 20:39:00,
2013-07-27 13:45:00,92.0,62.8,29.93,NNE,22,3.0,4.0,38,0.00,,SKC,0.00,VWS V14.01,2013-07-27 20:45:00,
2013-07-27 13:51:00,92.0,62.8,29.93,ENE,68,6.0,9.0,38,0.00,,SKC,0.00,VWS V14.01,2013-07-27 20:51:00,
2013-07-27 13:56:00,92.0,62.8,29.93,ENE,68,3.0,4.0,38,0.00,,SKC,0.00,VWS V14.01,2013-07-27 20:56:00,
2013-07-27 14:01:00,93.0,63.7,29.92,ENE,68,2.0,3.0,38,0.00,,SKC,0.00,VWS V14.01,2013-07-27 21:01:00,
2013-07-27 14:07:00,94.0,63.8,29.92,ENE,68,3.0,3.0,37,0.00,,SKC,0.00,VWS V14.01,2013-07-27 21:07:00,
2013-07-27 14:12:00,94.0,63.8,29.92,NE,45,4.0,5.0,37,0.00,,SKC,0.00,VWS V14.01,2013-07-27 21:12:00,
2013-07-27 14:18:00,95.0,63.9,29.92,NE,45,3.0,3.0,36,0.00,,SKC,0.00,VWS V14.01,2013-07-27 21:18:00,
2013-07-27 14:23:00,95.0,63.1,29.91,WNW,292,5.0,5.0,35,0.00,,SKC,0.00,VWS V14.01,2013-07-27 21:23:00,
2013-07-27 14:28:00,96.0,64.0,29.91,SSW,202,1.0,2.0,35,0.00,,SKC,0.00,VWS V14.01,2013-07-27 21:28:00,
2013-07-27 14:29:00,97.0,64.0,29.91,SSW,202,1.0,1.0,34,0.00,,SKC,0.00,VWS V14.01,2013-07-27 21:29:00,
2013-07-27 14:35:00,97.0,64.0,29.90,NNE,22,3.0,3.0,34,0.00,,SKC,0.00,VWS V14.01,2013-07-27 21:35:00,
2013-07-27 14:41:00,96.0,63.1,29.90,ENE,68,4.0,5.0,34,0.00,,SKC,0.00,VWS V14.01,2013-07-27 21:41:00,
2013-07-27 14:46:00,96.0,64.0,29.90,NNE,22,2.0,3.0,35,0.00,,SKC,0.00,VWS V14.01,2013-07-27 21:46:00,
2013-07-27 14:52:00,96.0,62.3,29.89,NE,45,3.0,5.0,33,0.00,,SKC,0.00,VWS V14.01,2013-07-27 21:52:00,
2013-07-27 14:58:00,96.0,63.1,29.88,SSE,158,3.0,3.0,34,0.00,,SKC,0.00,VWS V14.01,2013-07-27 21:58:00,
2013-07-27 15:03:00,97.0,64.0,29.88,WSW,248,6.0,7.0,34,0.00,,SKC,0.00,VWS V14.01,2013-07-27 22:03:00,
2013-07-27 15:08:00,97.0,64.0,29.88,WSW,248,6.0,8.0,34,0.00,,SKC,0.00,VWS V14.01,2013-07-27 22:08:00,
2013-07-27 15:13:00,95.0,63.1,29.88,NW,315,3.0,3.0,35,0.00,,SKC,0.00,VWS V14.01,2013-07-27 22:13:00,
2013-07-27 15:18:00,94.0,63.0,29.88,NW,315,5.0,6.0,36,0.00,,SKC,0.00,VWS V14.01,2013-07-27 22:18:00,
2013-07-27 15:23:00,94.0,63.8,29.88,WNW,292,1.0,2.0,37,0.00,,SKC,0.00,VWS V14.01,2013-07-27 22:23:00,
2013-07-27 15:28:00,94.0,63.8,29.87,WSW,248,0.0,0.0,37,0.00,,SKC,0.00,VWS V14.01,2013-07-27 22:28:00,
2013-07-27 15:34:00,95.0,63.9,29.87,SW,225,1.0,1.0,36,0.00,,SKC,0.00,VWS V14.01,2013-07-27 22:34:00,
2013-07-27 15:40:00,96.0,63.1,29.87,WSW,248,3.0,3.0,34,0.00,,SKC,0.00,VWS V14.01,2013-07-27 22:40:00,
2013-07-27 15:46:00,96.0,63.1,29.87,WNW,292,1.0,1.0,34,0.00,,SKC,0.00,VWS V14.01,2013-07-27 22:46:00,
2013-07-27 15:52:00,96.0,63.1,29.87,WNW,292,6.0,6.0,34,0.00,,SKC,0.00,VWS V14.01,2013-07-27 22:52:00,
2013-07-27 15:58:00,94.0,63.0,29.87,SW,225,7.0,7.0,36,0.00,,SKC,0.00,VWS V14.01,2013-07-27 22:58:00,
2013-07-27 16:03:00,93.0,64.4,29.87,WNW,292,5.0,5.0,39,0.00,,SKC,0.00,VWS V14.01,2013-07-27 23:03:00,
2013-07-27 16:08:00,93.0,65.8,29.88,WNW,292,3.0,3.0,41,0.00,,SKC,0.00,VWS V14.01,2013-07-27 23:08:00,
2013-07-27 16:13:00,92.0,64.9,29.88,SW,225,1.0,1.0,41,0.00,,SKC,0.00,VWS V14.01,2013-07-27 23:13:00,
2013-07-27 16:18:00,92.0,64.9,29.88,SSE,158,2.0,2.0,41,0.00,,SKC,0.00,VWS V14.01,2013-07-27 23:18:00,
2013-07-27 16:24:00,90.0,64.5,29.88,SSE,158,11.0,11.0,43,0.00,,SKC,0.00,VWS V14.01,2013-07-27 23:24:00,
2013-07-27 16:30:00,87.0,65.6,29.89,SE,135,14.0,19.0,49,0.00,,SKC,0.00,VWS V14.01,2013-07-27 23:30:00,
2013-07-27 16:36:00,84.0,63.4,29.89,East,90,6.0,10.0,50,0.00,,SKC,0.00,VWS V14.01,2013-07-27 23:36:00,
2013-07-27 16:42:00,83.0,64.1,29.89,ESE,112,14.0,20.0,53,0.00,,SKC,0.00,VWS V14.01,2013-07-27 23:42:00,
2013-07-27 16:48:00,81.0,65.8,29.90,ESE,112,13.0,18.0,60,0.00,,SKC,0.00,VWS V14.01,2013-07-27 23:48:00,
2013-07-27 16:54:00,78.0,66.6,29.89,NE,45,11.0,18.0,68,0.00,,SKC,0.00,VWS V14.01,2013-07-27 23:54:00,
2013-07-27 17:00:00,79.0,67.1,29.88,ENE,68,4.0,8.0,67,0.00,,SKC,0.00,VWS V14.01,2013-07-28 00:00:00,
2013-07-27 17:07:00,80.0,65.8,29.88,ENE,68,10.0,10.0,62,0.00,,SKC,0.00,VWS V14.01,2013-07-28 00:07:00,
2013-07-27 17:12:00,80.0,63.4,29.87,ESE,112,4.0,5.0,57,0.00,,SKC,0.00,VWS V14.01,2013-07-28 00:12:00,
2013-07-27 17:17:00,81.0,62.8,29.87,ENE,68,2.0,3.0,54,0.00,,SKC,0.00,VWS V14.01,2013-07-28 00:17:00,
2013-07-27 17:22:00,81.0,63.8,29.86,East,90,0.0,1.0,56,0.00,,SKC,0.00,VWS V14.01,2013-07-28 00:22:00,
2013-07-27 17:27:00,82.0,65.3,29.86,SSE,158,1.0,1.0,57,0.00,,SKC,0.00,VWS V14.01,2013-07-28 00:27:00,
2013-07-27 17:32:00,82.0,64.8,29.86,SW,225,0.0,1.0,56,0.00,,SKC,0.00,VWS V14.01,2013-07-28 00:32:00,
2013-07-27 17:38:00,83.0,66.7,29.86,NW,315,4.0,5.0,58,0.00,,SKC,0.00,VWS V14.01,2013-07-28 00:38:00,
2013-07-27 17:44:00,83.0,65.7,29.85,NW,315,3.0,3.0,56,0.00,,SKC,0.00,VWS V14.01,2013-07-28 00:44:00,
2013-07-27 17:50:00,83.0,64.7,29.85,NW,315,3.0,3.0,54,0.00,,SKC,0.00,VWS V14.01,2013-07-28 00:50:00,
2013-07-27 17:56:00,84.0,64.5,29.85,NW,315,5.0,6.0,52,0.00,,SKC,0.00,VWS V14.01,2013-07-28 00:56:00,
2013-07-27 18:02:00,84.0,63.9,29.85,NW,315,2.0,3.0,51,0.00,,SKC,0.00,VWS V14.01,2013-07-28 01:02:00,
2013-07-27 18:08:00,84.0,63.9,29.85,WNW,292,6.0,6.0,51,0.00,,SKC,0.00,VWS V14.01,2013-07-28 01:08:00,
2013-07-27 18:14:00,84.0,63.4,29.85,NW,315,6.0,6.0,50,0.00,,SKC,0.00,VWS V14.01,2013-07-28 01:14:00,
2013-07-27 18:19:00,85.0,64.3,29.85,NW,315,4.0,5.0,50,0.00,,SKC,0.00,VWS V14.01,2013-07-28 01:19:00,
2013-07-27 18:24:00,85.0,64.9,29.85,NW,315,5.0,5.0,51,0.00,,SKC,0.00,VWS V14.01,2013-07-28 01:24:00,
2013-07-27 18:29:00,85.0,64.3,29.85,WNW,292,5.0,5.0,50,0.00,,SKC,0.00,VWS V14.01,2013-07-28 01:29:00,
2013-07-27 18:34:00,86.0,64.0,29.85,NW,315,3.0,3.0,48,0.00,,SKC,0.00,VWS V14.01,2013-07-28 01:34:00,
2013-07-27 18:40:00,87.0,65.0,29.85,West,270,3.0,3.0,48,0.00,,SKC,0.00,VWS V14.01,2013-07-28 01:40:00,
2013-07-27 18:46:00,87.0,65.0,29.85,NW,315,2.0,3.0,48,0.00,,SKC,0.00,VWS V14.01,2013-07-28 01:46:00,
2013-07-27 18:51:00,88.0,65.3,29.85,NW,315,1.0,2.0,47,0.00,,SKC,0.00,VWS V14.01,2013-07-28 01:51:00,
2013-07-27 18:57:00,88.0,64.0,29.85,NW,315,0.0,0.0,45,0.00,,SKC,0.00,VWS V14.01,2013-07-28 01:57:00,
2013-07-27 19:02:00,88.0,64.7,29.85,NW,315,0.0,0.0,46,0.00,,SKC,0.00,VWS V14.01,2013-07-28 02:02:00,
2013-07-27 19:08:00,87.0,65.6,29.85,WSW,248,2.0,3.0,49,0.00,,SKC,0.00,VWS V14.01,2013-07-28 02:08:00,
2013-07-27 19:13:00,87.0,65.6,29.85,WSW,248,0.0,0.0,49,0.00,,SKC,0.00,VWS V14.01,2013-07-28 02:13:00,
2013-07-27 19:18:00,86.0,64.6,29.85,WSW,248,0.0,0.0,49,0.00,,SKC,0.00,VWS V14.01,2013-07-28 02:18:00,
2013-07-27 19:23:00,86.0,65.2,29.85,SSE,158,1.0,2.0,50,0.00,,SKC,0.00,VWS V14.01,2013-07-28 02:23:00,
2013-07-27 19:29:00,86.0,66.3,29.85,SSE,158,0.0,0.0,52,0.00,,SKC,0.00,VWS V14.01,2013-07-28 02:29:00,
2013-07-27 19:35:00,85.0,66.0,29.85,SSE,158,0.0,0.0,53,0.00,,SKC,0.00,VWS V14.01,2013-07-28 02:35:00,
2013-07-27 19:41:00,85.0,66.0,29.85,SSE,158,0.0,0.0,53,0.00,,SKC,0.00,VWS V14.01,2013-07-28 02:41:00,
2013-07-27 19:47:00,84.0,65.6,29.86,SSE,158,0.0,0.0,54,0.00,,SKC,0.00,VWS V14.01,2013-07-28 02:47:00,
2013-07-27 19:52:00,84.0,66.1,29.86,SSE,158,0.0,0.0,55,0.00,,SKC,0.00,VWS V14.01,2013-07-28 02:52:00,
2013-07-27 19:57:00,83.0,65.7,29.86,SSE,158,0.0,0.0,56,0.00,,SKC,0.00,VWS V14.01,2013-07-28 02:57:00,
2013-07-27 20:02:00,83.0,65.2,29.86,SSE,158,0.0,0.0,55,0.00,,SKC,0.00,VWS V14.01,2013-07-28 03:02:00,
2013-07-27 20:07:00,83.0,65.7,29.86,SSE,158,0.0,0.0,56,0.00,,SKC,0.00,VWS V14.01,2013-07-28 03:07:00,
2013-07-27 20:13:00,82.0,65.8,29.86,SSE,158,0.0,0.0,58,0.00,,SKC,0.00,VWS V14.01,2013-07-28 03:13:00,
2013-07-27 20:18:00,82.0,66.8,29.86,SSE,158,0.0,0.0,60,0.00,,SKC,0.00,VWS V14.01,2013-07-28 03:18:00,
2013-07-27 20:24:00,82.0,67.2,29.86,SSE,158,0.0,0.0,61,0.00,,SKC,0.00,VWS V14.01,2013-07-28 03:24:00,
2013-07-27 20:30:00,82.0,66.8,29.86,SSE,158,0.0,0.0,60,0.00,,SKC,0.00,VWS V14.01,2013-07-28 03:30:00,
2013-07-27 20:36:00,83.0,67.7,29.86,ENE,68,0.0,0.0,60,0.00,,SKC,0.00,VWS V14.01,2013-07-28 03:36:00,
2013-07-27 20:42:00,82.0,66.3,29.86,North,0,1.0,1.0,59,0.00,,SKC,0.00,VWS V14.01,2013-07-28 03:42:00,
2013-07-27 20:48:00,82.0,66.3,29.86,North,0,0.0,1.0,59,0.00,,SKC,0.00,VWS V14.01,2013-07-28 03:48:00,
2013-07-27 20:54:00,82.0,66.3,29.87,North,0,0.0,0.0,59,0.00,,SKC,0.00,VWS V14.01,2013-07-28 03:54:00,
2013-07-27 20:59:00,82.0,66.3,29.87,North,0,0.0,0.0,59,0.00,,SKC,0.00,VWS V14.01,2013-07-28 03:59:00,
2013-07-27 21:01:00,82.0,66.8,29.87,North,0,0.0,0.0,60,0.00,,SKC,0.00,VWS V14.01,2013-07-28 04:01:00,
2013-07-27 21:02:00,82.0,66.8,29.87,North,0,0.0,0.0,60,0.00,,SKC,0.00,VWS V14.01,2013-07-28 04:02:00,
2013-07-27 21:03:00,82.0,66.3,29.87,North,0,0.0,0.0,59,0.00,,SKC,0.00,VWS V14.01,2013-07-28 04:03:00,
2013-07-27 21:08:00,82.0,66.8,29.87,North,0,0.0,0.0,60,0.00,,SKC,0.00,VWS V14.01,2013-07-28 04:08:00,
2013-07-27 21:13:00,82.0,66.3,29.87,North,0,0.0,0.0,59,0.00,,SKC,0.00,VWS V14.01,2013-07-28 04:13:00,
2013-07-27 21:14:00,82.0,66.8,29.87,North,0,0.0,0.0,60,0.00,,SKC,0.00,VWS V14.01,2013-07-28 04:14:00,
2013-07-27 21:19:00,82.0,66.8,29.88,North,0,0.0,0.0,60,0.00,,SKC,0.00,VWS V14.01,2013-07-28 04:19:00,
2013-07-27 21:25:00,82.0,67.2,29.88,North,0,0.0,1.0,61,0.00,,SKC,0.00,VWS V14.01,2013-07-28 04:25:00,
2013-07-27 21:30:00,82.0,67.2,29.88,NE,45,0.0,0.0,61,0.00,,SKC,0.00,VWS V14.01,2013-07-28 04:30:00,
2013-07-27 21:36:00,81.0,66.8,29.88,NE,45,0.0,1.0,62,0.00,,SKC,0.00,VWS V14.01,2013-07-28 04:36:00,
2013-07-27 21:42:00,81.0,66.8,29.88,North,0,3.0,3.0,62,0.00,,SKC,0.00,VWS V14.01,2013-07-28 04:42:00,
2013-07-27 21:48:00,81.0,67.2,29.88,NNE,22,2.0,3.0,63,0.00,,SKC,0.00,VWS V14.01,2013-07-28 04:48:00,
2013-07-27 21:54:00,81.0,67.2,29.88,North,0,1.0,1.0,63,0.00,,SKC,0.00,VWS V14.01,2013-07-28 04:54:00,
2013-07-27 21:59:00,81.0,67.2,29.88,North,0,0.0,0.0,63,0.00,,SKC,0.00,VWS V14.01,2013-07-28 04:59:00,
2013-07-27 22:04:00,81.0,67.2,29.89,North,0,0.0,0.0,63,0.00,,SKC,0.00,VWS V14.01,2013-07-28 05:04:00,
2013-07-27 22:10:00,81.0,66.8,29.89,North,0,0.0,0.0,62,0.00,,SKC,0.00,VWS V14.01,2013-07-28 05:10:00,
2013-07-27 22:16:00,81.0,68.1,29.89,SE,135,3.0,4.0,65,0.00,,SKC,0.00,VWS V14.01,2013-07-28 05:16:00,
2013-07-27 22:22:00,81.0,68.6,29.89,SSE,158,0.0,0.0,66,0.00,,SKC,0.00,VWS V14.01,2013-07-28 05:22:00,
2013-07-27 22:28:00,81.0,68.6,29.89,SSE,158,0.0,0.0,66,0.00,,SKC,0.00,VWS V14.01,2013-07-28 05:28:00,
2013-07-27 22:33:00,80.0,68.5,29.89,SSE,158,0.0,0.0,68,0.00,,SKC,0.00,VWS V14.01,2013-07-28 05:33:00,
2013-07-27 22:39:00,80.0,68.5,29.89,SSE,158,0.0,0.0,68,0.00,,SKC,0.00,VWS V14.01,2013-07-28 05:39:00,
2013-07-27 22:45:00,79.0,68.0,29.89,SSE,158,0.0,0.0,69,0.00,,SKC,0.00,VWS V14.01,2013-07-28 05:45:00,
2013-07-27 22:52:00,80.0,68.5,29.89,SSE,158,0.0,0.0,68,0.00,,SKC,0.00,VWS V14.01,2013-07-28 05:52:00,
2013-07-27 22:57:00,80.0,67.2,29.88,SSW,202,1.0,1.0,65,0.00,,SKC,0.00,VWS V14.01,2013-07-28 05:57:00,
2013-07-27 23:03:00,80.0,66.7,29.88,SSW,202,0.0,0.0,64,0.00,,SKC,0.00,VWS V14.01,2013-07-28 06:03:00,
2013-07-27 23:08:00,80.0,67.2,29.88,SSW,202,0.0,0.0,65,0.00,,SKC,0.00,VWS V14.01,2013-07-28 06:08:00,
2013-07-27 23:13:00,80.0,66.7,29.88,SSW,202,0.0,0.0,64,0.00,,SKC,0.00,VWS V14.01,2013-07-28 06:13:00,
2013-07-27 23:18:00,80.0,66.3,29.88,SSW,202,1.0,1.0,63,0.00,,SKC,0.00,VWS V14.01,2013-07-28 06:18:00,
2013-07-27 23:23:00,80.0,66.3,29.88,SSW,202,0.0,0.0,63,0.00,,SKC,0.00,VWS V14.01,2013-07-28 06:23:00,
2013-07-27 23:28:00,80.0,66.3,29.88,SSW,202,0.0,0.0,63,0.00,,SKC,0.00,VWS V14.01,2013-07-28 06:28:00,
2013-07-27 23:33:00,80.0,67.6,29.88,North,0,3.0,3.0,66,0.00,,SKC,0.00,VWS V14.01,2013-07-28 06:33:00,
2013-07-27 23:38:00,80.0,67.6,29.87,NNW,338,2.0,2.0,66,0.00,,SKC,0.00,VWS V14.01,2013-07-28 06:38:00,
2013-07-27 23:43:00,80.0,67.6,29.87,NW,315,1.0,1.0,66,0.00,,SKC,0.00,VWS V14.01,2013-07-28 06:43:00,
2013-07-27 23:48:00,80.0,67.6,29.88,NW,315,0.0,0.0,66,0.00,,SKC,0.00,VWS V14.01,2013-07-28 06:48:00,
2013-07-27 23:53:00,80.0,67.6,29.88,NW,315,0.0,1.0,66,0.00,,SKC,0.00,VWS V14.01,2013-07-28 06:53:00,
2013-07-27 23:58:00,79.0,67.1,29.88,NW,315,0.0,0.0,67,0.00,,SKC,0.00,VWS V14.01,2013-07-28 06:58:00,